x

Columbia River Bar - 20nm West Of Columbia River Mouth (46029) Wave Buoy

3:50am - Wed 21st Nov 2018 All times are PST. -8 hours from GMT.

  • Sig Wave height 7.5ft
  • Swell Direction
  • Peak Period 7s
  • Average Period 6s
  • Wind
    25mph, 31mph gusts
  • Sea Temp 54°f
  • Air Temp 53°f
  • Sea Pressure 1006.6mb
  • Columbia River Bar - 20nm West Of Columbia River Mouth
  • Columbia River Bar - 20nm West Of Columbia River Mouth

More Historic Weather Station data

Upgrade to MSW Pro to gain access to the past 30 days of data for over 8000 Wavebouys and Weather Stations around the globe.

Join

Comparision Forecast

View Surf forecast
   
Wed 11/21 3:50am 7.5ft 7s 6s 25 31 mph 1006.6mb 54f 53f
2:50am 7ft 7s 6s 22 27 mph 1007.4mb 54f 53f
1:50am 6.5ft 8s 5s 25 31 mph 1007.7mb 53f 54f
Tue 11/20 11:50pm 6ft 6s 5s 20 27 mph 1008.8mb 53f 55f
10:50pm 5.5ft 6s 5s 25 31 mph 1009.4mb 53f 55f
8:50pm 4.5ft 6s 5s 22 29 mph 1009.7mb 53f 55f
7:50pm 3.5ft 9s 5s 22 27 mph 1010.1mb 53f 56f
6:50pm 3ft 9s 5s 16 18 mph 1010.2mb 54f 56f
5:50pm 2.5ft 12s 5s 13 16 mph 1009.7mb 54f 55f
4:50pm 3ft 13s 5s 13 16 mph 1010.3mb 54f 55f
3:50pm 3ft 4s 5s 11 13 mph 1010.7mb 53f 55f
1:50pm 3.5ft 9s 5s 11 13 mph 1011.1mb 54f 54f
12:50pm 3ft 9s 5s 13 16 mph 1011.4mb 54f 54f
11:50am 3ft 9s 5s 11 13 mph 1012.1mb 54f 53f
10:50am 3ft 9s 5s 13 16 mph 1012.7mb 54f 53f
9:50am 3ft 10s 5s 11 13 mph 1012.9mb 54f 53f
8:50am 2.5ft 10s 5s 7 9 mph 1013.1mb 54f 52f
7:50am 3ft 10s 5s 9 11 mph 1013mb 53f 52f
6:50am 2.5ft 10s 5s 11 11 mph 1013.1mb 53f 51f
5:50am 2.5ft 9s 5s 11 13 mph 1013.3mb 53f 52f
4:50am 2.5ft 10s 6s 11 13 mph 1013.8mb 53f 51f
3:50am 2.5ft 10s 6s 11 11 mph 1014.3mb 53f 52f
2:50am 2.5ft 11s 6s 9 11 mph 1015mb 53f 52f
1:50am 2.5ft 10s 7s 4 7 mph 1015.5mb 53f 52f
12:50am 2.5ft 11s 7s 4 7 mph 1015.8mb 53f 52f
Mon 11/19 11:50pm 3ft 10s 7s 4 7 mph 1015.9mb 53f 52f
10:50pm 2.5ft 11s 8s 7 7 mph 1016mb 53f 52f
9:50pm 2.5ft 11s 8s 4 7 mph 1016.2mb 53f 52f
8:50pm 3ft 10s 8s 7 9 mph 1015.9mb 53f 52f
7:50pm 3ft 11s 8s 7 9 mph 1016.4mb 54f 52f
6:50pm 3ft 10s 8s 7 9 mph 1016.3mb 54f 52f
5:50pm 2.5ft 11s 8s 4 4 mph 1016.8mb 54f 52f
4:50pm 3ft 11s 8s 2 2 mph 1017.1mb 54f 52f
3:50pm 3.5ft 11s 8s 2 4 mph 1017.1mb 54f 52f
2:50pm 3.5ft 11s 7s 2 4 mph 1017.2mb 54f 53f
1:50pm 3ft 11s 7s 4 4 mph 1017.6mb 54f 52f
12:50pm 3ft 11s 7s 2 4 mph 1018mb 54f 52f
11:50am 3.5ft 11s 7s 4 7 mph 1018.4mb 53f 52f
9:50am 3ft 11s 6s 7 9 mph 1018.8mb 53f 51f
8:50am 3.5ft 11s 7s 4 7 mph 1018.9mb 53f 51f
7:50am 3ft 12s 7s 7 9 mph 1018.6mb 53f 50f
6:50am 3ft 12s 7s 7 7 mph 1018.6mb 53f 50f
5:50am 3.5ft 11s 7s 7 9 mph 1018.6mb 53f 50f
4:50am 3ft 11s 7s 7 7 mph 1018.6mb 53f 50f
3:50am 3.5ft 12s 7s 7 9 mph 1019mb 53f 50f
2:50am 3.5ft 11s 8s 9 9 mph 1019.3mb 53f 50f
12:50am 3.5ft 12s 9s 7 11 mph 1019.6mb 53f 51f
Sun 11/18 11:50pm 3.5ft 12s 9s  -  0 mph 1019.7mb 53f 52f
10:50pm 3.5ft 12s 9s  -  2 mph 1019.6mb 53f 52f
9:50pm 3.5ft 12s 9s 4 4 mph 1019.7mb 53f 52f
8:50pm 3.5ft 12s 9s 2 2 mph 1019.4mb 53f 52f
7:50pm 4ft 12s 10s  -  0 mph 1019.3mb 53f 52f
6:50pm 4ft 12s 9s  -  2 mph 1019.2mb 53f 52f
5:50pm 4ft 13s 8s 2 2 mph 1019.3mb 53f 52f
4:50pm 3.5ft 13s 8s 2 4 mph 1019.4mb 53f 52f
3:50pm 3.5ft 13s 7s 2 4 mph 1019.6mb 53f 53f
2:50pm 4ft 13s 7s 2 4 mph 1019.7mb 54f 53f
1:50pm 4ft 13s 7s 4 4 mph 1019.8mb 53f 53f
12:50pm 4.5ft 12s 7s 7 7 mph 1020mb 53f 53f
11:50am 4.5ft 11s 7s 9 11 mph 1020.3mb 53f 52f
9:50am 4.5ft 11s 6s 13 16 mph 1020.4mb 53f 51f
8:50am 5ft 13s 7s 13 18 mph 1019.9mb 53f 51f
7:50am 5ft 13s 6s 16 18 mph 1019.5mb 53f 51f
6:50am 5ft 12s 6s 16 20 mph 1019mb 53f 51f
5:50am 5ft 13s 6s 18 22 mph 1019mb 53f 51f
4:50am 5ft 13s 6s 18 20 mph 1019.3mb 53f 51f
3:50am 5ft 14s 6s 20 22 mph 1019.5mb 53f 50f
2:50am 5ft 13s 6s 20 25 mph 1019.7mb 53f 50f
12:50am 5ft 13s 6s 20 25 mph 1019.7mb 53f 51f
Sat 11/17 11:50pm 6ft 13s 6s 22 25 mph 1019.6mb 54f 51f
10:50pm 5.5ft 14s 6s 22 27 mph 1019.8mb 54f 51f
9:50pm 5ft 14s 6s 22 27 mph 1019.9mb 54f 52f
8:50pm 5ft 14s 6s 20 25 mph 1020.1mb 54f 53f
7:50pm 5ft 13s 7s 20 22 mph 1020.1mb 54f 53f
6:50pm 5ft 14s 7s 20 22 mph 1020mb 54f 53f
5:50pm 6.5ft 14s 8s 20 25 mph 1020.4mb 54f 53f
4:50pm 6ft 14s 7s 20 25 mph 1020.6mb 54f 54f
3:50pm 6ft 15s 7s 22 25 mph 1020.7mb 54f 54f
2:50pm 5ft 15s 6s 20 25 mph 1021.1mb 54f 53f